Time;durP1;ratioP1;P1;durP2;ratioP2;P2;SDS_P1;SDS_P2;PMS_P1;PMS_P2;Temp;Humidity;BMP_temperature;BMP_pressure;BME280_temperature;BME280_humidity;BME280_pressure;Samples;Min_cycle;Max_cycle;Signal;HPM_P1;HPM_P2
2023/08/26 00:00:18;;;;;;;28.80;15.82;;;;;;;;;;20996677;28;20382;-60
2023/08/26 00:10:19;;;;;;;15.80;4.13;;;;;;;;;;20996901;28;20151;-60
2023/08/26 00:20:23;;;;;;;18.10;4.07;;;;;;;;;;20996414;28;20040;-60
2023/08/26 00:30:25;;;;;;;22.13;4.18;;;;;;;;;;20996008;28;20546;-60
2023/08/26 00:40:26;;;;;;;12.18;2.90;;;;;;;;;;20993995;28;20040;-60
2023/08/26 00:50:28;;;;;;;15.55;3.50;;;;;;;;;;20993622;28;20065;-60
2023/08/26 01:00:30;;;;;;;14.02;3.80;;;;;;;;;;20994950;28;20067;-60
2023/08/26 01:10:34;;;;;;;12.70;3.60;;;;;;;;;;21002150;28;20036;-61
2023/08/26 01:20:35;;;;;;;19.50;3.63;;;;;;;;;;21009492;28;20064;-60
2023/08/26 01:30:36;;;;;;;15.80;3.55;;;;;;;;;;21008308;28;20406;-61
2023/08/26 01:40:40;;;;;;;18.55;3.53;;;;;;;;;;21007269;28;20456;-60
2023/08/26 01:50:41;;;;;;;12.27;2.50;;;;;;;;;;21006236;28;20440;-60
2023/08/26 02:00:42;;;;;;;13.88;2.95;;;;;;;;;;21004757;28;20112;-61
2023/08/26 02:10:43;;;;;;;15.98;3.28;;;;;;;;;;21004951;28;20036;-60
2023/08/26 02:20:45;;;;;;;11.07;3.00;;;;;;;;;;21002913;28;20040;-59
2023/08/26 02:30:46;;;;;;;10.73;2.70;;;;;;;;;;21002341;28;20093;-60
2023/08/26 02:40:53;;;;;;;12.77;2.63;;;;;;;;;;21001802;28;20063;-59
2023/08/26 02:50:58;;;;;;;11.85;2.45;;;;;;;;;;21000971;28;20053;-60
2023/08/26 03:01:02;;;;;;;10.47;2.00;;;;;;;;;;21001166;28;20056;-61
2023/08/26 03:11:04;;;;;;;11.80;2.25;;;;;;;;;;21000742;28;20040;-59
2023/08/26 03:21:06;;;;;;;12.98;2.28;;;;;;;;;;20999134;28;20037;-61
2023/08/26 03:31:07;;;;;;;11.73;1.83;;;;;;;;;;20998450;28;20048;-60
2023/08/26 03:41:08;;;;;;;8.73;1.83;;;;;;;;;;20997438;28;20040;-60
2023/08/26 03:51:09;;;;;;;8.30;2.22;;;;;;;;;;20996686;28;20048;-60
2023/08/26 04:01:10;;;;;;;9.50;1.60;;;;;;;;;;20997421;28;20068;-60
2023/08/26 04:11:12;;;;;;;8.68;2.35;;;;;;;;;;20995892;28;20045;-60
2023/08/26 04:21:13;;;;;;;11.57;2.28;;;;;;;;;;20995662;28;20052;-60
2023/08/26 04:31:14;;;;;;;9.65;2.22;;;;;;;;;;20996598;28;20048;-60
2023/08/26 04:41:15;;;;;;;7.63;2.20;;;;;;;;;;20998369;28;20044;-60
2023/08/26 04:51:16;;;;;;;12.85;2.35;;;;;;;;;;21010422;28;20044;-60
2023/08/26 05:01:17;;;;;;;9.20;2.38;;;;;;;;;;21009816;28;20093;-61
2023/08/26 05:11:18;;;;;;;12.02;1.88;;;;;;;;;;21010313;28;20044;-60
2023/08/26 05:21:20;;;;;;;15.90;3.20;;;;;;;;;;21009317;28;20051;-60
2023/08/26 05:31:21;;;;;;;14.13;4.57;;;;;;;;;;21008873;28;20114;-61
2023/08/26 05:41:22;;;;;;;22.63;5.25;;;;;;;;;;21008314;28;20122;-60
2023/08/26 05:51:23;;;;;;;18.75;5.50;;;;;;;;;;21005425;28;20060;-60
2023/08/26 06:01:24;;;;;;;17.80;5.78;;;;;;;;;;21004666;28;20106;-61
2023/08/26 06:11:26;;;;;;;19.58;7.63;;;;;;;;;;21005931;28;20105;-61
2023/08/26 06:21:27;;;;;;;19.85;7.53;;;;;;;;;;21004923;28;20059;-60
2023/08/26 06:31:29;;;;;;;23.08;8.05;;;;;;;;;;21002779;28;20048;-60
2023/08/26 06:41:32;;;;;;;22.52;7.15;;;;;;;;;;21001924;28;20078;-60
2023/08/26 06:51:34;;;;;;;16.20;5.95;;;;;;;;;;21002286;28;20577;-59
2023/08/26 07:01:35;;;;;;;18.60;6.40;;;;;;;;;;21001474;28;20083;-60
2023/08/26 07:11:36;;;;;;;10.05;4.13;;;;;;;;;;21000492;28;20459;-59
2023/08/26 07:21:37;;;;;;;12.98;3.92;;;;;;;;;;20998550;28;20093;-60
2023/08/26 07:31:38;;;;;;;9.55;4.03;;;;;;;;;;20999274;28;20048;-60
2023/08/26 07:41:39;;;;;;;16.92;4.60;;;;;;;;;;20998105;28;20036;-60
2023/08/26 07:51:40;;;;;;;10.63;4.50;;;;;;;;;;20998269;28;20052;-61
2023/08/26 08:01:41;;;;;;;15.63;7.45;;;;;;;;;;20997806;28;20084;-60
2023/08/26 08:11:42;;;;;;;19.10;4.93;;;;;;;;;;20996219;28;20089;-60
2023/08/26 08:21:44;;;;;;;11.73;5.63;;;;;;;;;;20995601;28;20036;-60
2023/08/26 08:31:45;;;;;;;16.55;6.60;;;;;;;;;;20996220;28;20041;-62
2023/08/26 08:41:49;;;;;;;15.80;7.85;;;;;;;;;;20995727;28;20047;-61
2023/08/26 08:51:51;;;;;;;13.52;6.00;;;;;;;;;;20994422;28;20057;-61
2023/08/26 09:01:55;;;;;;;13.43;5.03;;;;;;;;;;20995179;28;20044;-61
2023/08/26 09:11:57;;;;;;;9.20;4.90;;;;;;;;;;20996094;28;20381;-61
2023/08/26 09:21:59;;;;;;;8.50;4.28;;;;;;;;;;20994577;28;20509;-60
2023/08/26 09:32:00;;;;;;;12.95;6.60;;;;;;;;;;21001788;28;20044;-60
2023/08/26 09:42:01;;;;;;;14.23;4.78;;;;;;;;;;21006476;28;20048;-61
2023/08/26 09:52:02;;;;;;;6.65;3.58;;;;;;;;;;21006299;28;20566;-62
2023/08/26 10:02:04;;;;;;;8.25;3.83;;;;;;;;;;21005552;28;20490;-61
2023/08/26 10:12:08;;;;;;;7.32;4.07;;;;;;;;;;21003909;28;20041;-62
2023/08/26 10:22:09;;;;;;;11.68;3.63;;;;;;;;;;21004443;28;20045;-61
2023/08/26 10:32:17;;;;;;;9.73;2.65;;;;;;;;;;21003956;28;20049;-60
2023/08/26 10:42:19;;;;;;;5.72;2.17;;;;;;;;;;21002282;28;20121;-60
2023/08/26 10:52:30;;;;;;;11.50;2.65;;;;;;;;;;21000744;28;20053;-61
2023/08/26 11:02:31;;;;;;;11.43;2.72;;;;;;;;;;21000172;28;20055;-63
2023/08/26 11:12:33;;;;;;;11.15;3.05;;;;;;;;;;20999557;28;20040;-60
2023/08/26 11:22:34;;;;;;;6.93;2.15;;;;;;;;;;21000065;28;20424;-61
2023/08/26 11:32:36;;;;;;;4.47;2.15;;;;;;;;;;20999172;28;20504;-61
2023/08/26 11:42:37;;;;;;;8.02;2.35;;;;;;;;;;20998086;28;20052;-62
2023/08/26 11:52:41;;;;;;;6.63;2.10;;;;;;;;;;20996516;28;20490;-62
2023/08/26 12:02:52;;;;;;;9.48;2.38;;;;;;;;;;20997115;28;20040;-60
2023/08/26 12:13:01;;;;;;;13.20;3.00;;;;;;;;;;20995982;28;20044;-61
2023/08/26 12:23:03;;;;;;;11.10;2.33;;;;;;;;;;20995328;28;20048;-61
2023/08/26 12:33:05;;;;;;;9.65;2.40;;;;;;;;;;20996088;28;20523;-62
2023/08/26 12:43:06;;;;;;;14.98;3.10;;;;;;;;;;20995768;28;20045;-61
2023/08/26 12:53:07;;;;;;;13.60;2.67;;;;;;;;;;20994658;28;20563;-62
2023/08/26 13:03:09;;;;;;;8.75;2.38;;;;;;;;;;20998581;28;20409;-61
2023/08/26 13:13:10;;;;;;;11.52;2.03;;;;;;;;;;21010454;28;20040;-61
2023/08/26 13:23:11;;;;;;;19.95;3.30;;;;;;;;;;21008591;28;20044;-60
2023/08/26 13:33:12;;;;;;;15.35;3.15;;;;;;;;;;21007258;28;20041;-61
2023/08/26 13:43:13;;;;;;;20.77;2.97;;;;;;;;;;21008042;28;20041;-61
2023/08/26 13:53:15;;;;;;;15.13;3.25;;;;;;;;;;21006166;28;20055;-61
2023/08/26 14:03:16;;;;;;;18.80;3.08;;;;;;;;;;21005087;28;20075;-61
2023/08/26 14:13:17;;;;;;;8.93;1.80;;;;;;;;;;21003770;28;20048;-61
2023/08/26 14:23:18;;;;;;;9.30;2.08;;;;;;;;;;21003721;28;20044;-61
2023/08/26 14:33:19;;;;;;;11.25;2.17;;;;;;;;;;21002968;28;20044;-61
2023/08/26 14:43:21;;;;;;;14.95;2.38;;;;;;;;;;21003430;28;20044;-61
2023/08/26 14:53:22;;;;;;;11.60;3.72;;;;;;;;;;21001004;28;20098;-60
2023/08/26 15:03:23;;;;;;;9.43;2.30;;;;;;;;;;21001668;28;20068;-61
2023/08/26 15:13:24;;;;;;;23.80;2.97;;;;;;;;;;21000740;28;20040;-61
2023/08/26 15:23:25;;;;;;;11.10;2.85;;;;;;;;;;20999805;28;20044;-60
2023/08/26 15:33:26;;;;;;;14.32;2.88;;;;;;;;;;20997800;28;20048;-62
2023/08/26 15:43:28;;;;;;;11.98;3.03;;;;;;;;;;20998377;28;20174;-61
2023/08/26 15:53:29;;;;;;;13.20;2.75;;;;;;;;;;20996995;28;20414;-61
2023/08/26 16:03:30;;;;;;;12.02;2.17;;;;;;;;;;20996789;28;20401;-62
2023/08/26 16:13:31;;;;;;;14.48;2.80;;;;;;;;;;20996899;28;20371;-62
2023/08/26 16:23:32;;;;;;;7.78;2.00;;;;;;;;;;20996639;28;20040;-62
2023/08/26 16:33:35;;;;;;;12.05;2.22;;;;;;;;;;20995943;28;20059;-62
2023/08/26 16:43:36;;;;;;;3.53;1.27;;;;;;;;;;21008946;28;20516;-61
2023/08/26 16:53:38;;;;;;;8.32;2.00;;;;;;;;;;21011539;28;20063;-60
2023/08/26 17:03:39;;;;;;;8.05;1.98;;;;;;;;;;21010904;28;20401;-61
2023/08/26 17:13:40;;;;;;;5.93;1.50;;;;;;;;;;21009953;28;20508;-60
2023/08/26 17:23:41;;;;;;;9.57;1.80;;;;;;;;;;21008586;28;20508;-61
2023/08/26 17:33:43;;;;;;;4.32;1.63;;;;;;;;;;21007294;28;20056;-62
2023/08/26 17:43:44;;;;;;;4.95;1.52;;;;;;;;;;21007687;28;20037;-61
2023/08/26 17:53:45;;;;;;;8.18;2.28;;;;;;;;;;21005225;28;20414;-61
2023/08/26 18:03:46;;;;;;;5.35;1.90;;;;;;;;;;21006698;28;20044;-61
2023/08/26 18:13:48;;;;;;;4.38;1.65;;;;;;;;;;21005273;28;20040;-61
2023/08/26 18:23:49;;;;;;;3.92;1.70;;;;;;;;;;21004658;28;20400;-61
2023/08/26 18:33:51;;;;;;;6.93;1.83;;;;;;;;;;21003981;28;20119;-62
2023/08/26 18:43:52;;;;;;;6.72;2.33;;;;;;;;;;21002953;28;20099;-61
2023/08/26 18:53:54;;;;;;;3.38;1.83;;;;;;;;;;21002920;28;20103;-63
2023/08/26 19:03:55;;;;;;;3.67;2.15;;;;;;;;;;20999353;28;20088;-62
2023/08/26 19:13:56;;;;;;;5.25;2.10;;;;;;;;;;21000194;28;20441;-63
2023/08/26 19:23:58;;;;;;;5.32;2.15;;;;;;;;;;20999719;28;20044;-61
2023/08/26 19:33:59;;;;;;;3.67;2.65;;;;;;;;;;20997601;28;20053;-61
2023/08/26 19:44:00;;;;;;;2.97;2.08;;;;;;;;;;20998443;28;20346;-61
2023/08/26 19:54:03;;;;;;;4.47;2.00;;;;;;;;;;20998056;28;20067;-61
2023/08/26 20:04:04;;;;;;;5.57;1.90;;;;;;;;;;20997404;28;20450;-62
2023/08/26 20:14:05;;;;;;;6.80;1.88;;;;;;;;;;20994864;28;20040;-62
2023/08/26 20:24:07;;;;;;;5.07;1.83;;;;;;;;;;20995583;28;20044;-60
2023/08/26 20:34:08;;;;;;;3.85;1.55;;;;;;;;;;20996527;28;20072;-61
2023/08/26 20:44:09;;;;;;;6.72;1.73;;;;;;;;;;20994661;28;20040;-62
2023/08/26 20:54:10;;;;;;;3.97;2.42;;;;;;;;;;20995006;28;20509;-61
2023/08/26 21:04:12;;;;;;;2.83;1.60;;;;;;;;;;20995237;28;20080;-61
2023/08/26 21:14:13;;;;;;;2.42;1.40;;;;;;;;;;20994520;28;20055;-62
2023/08/26 21:24:14;;;;;;;4.82;1.50;;;;;;;;;;20998177;28;20055;-61
2023/08/26 21:34:15;;;;;;;3.55;1.40;;;;;;;;;;21008973;28;20117;-61
2023/08/26 21:44:16;;;;;;;2.65;1.38;;;;;;;;;;21007458;28;20486;-60
2023/08/26 21:54:17;;;;;;;2.20;1.20;;;;;;;;;;21006574;28;20114;-61
2023/08/26 22:04:19;;;;;;;2.80;1.23;;;;;;;;;;21005405;28;20093;-61
2023/08/26 22:14:20;;;;;;;2.97;1.00;;;;;;;;;;21006011;28;20040;-60
2023/08/26 22:24:21;;;;;;;2.58;1.10;;;;;;;;;;21004232;28;20048;-60
2023/08/26 22:34:22;;;;;;;2.03;0.95;;;;;;;;;;21003903;28;20044;-61
2023/08/26 22:44:23;;;;;;;1.73;0.77;;;;;;;;;;21003462;28;20045;-61
2023/08/26 22:54:24;;;;;;;2.10;0.93;;;;;;;;;;21003165;28;20063;-61
2023/08/26 23:04:25;;;;;;;2.47;1.20;;;;;;;;;;21001740;28;20080;-61
2023/08/26 23:14:27;;;;;;;3.20;0.60;;;;;;;;;;21001191;28;20044;-61
2023/08/26 23:24:28;;;;;;;2.70;0.80;;;;;;;;;;21000362;28;20044;-61
2023/08/26 23:34:29;;;;;;;5.72;0.98;;;;;;;;;;20999450;28;20084;-61
2023/08/26 23:44:30;;;;;;;3.78;1.00;;;;;;;;;;20998762;28;20127;-61
2023/08/26 23:54:31;;;;;;;3.25;0.57;;;;;;;;;;20996548;28;20131;-61
